University Oxford Airport Oxford US
ICAO: KUOX
IATA: UOX
Category: Medium
Scheduled Services: No

Elevation: 452 ft
TransAlt. 18000 ft.

Airport Communications:
AWOS 3:132.725
MEMPHIS CNTR:128.5
CTAF/UNICOM:123

KUOX Zoom In..

If you have problems with the map follow the link
https://www.worldairports.se/pages/airport.php?
ICAO=KUOX

Runways:

(A) RW 09 length 5600 ft width 100 ft
LOC 111.70 / hdg 90

(B) RW 27 length 5600 ft width 100 ft
LOC 111.70 / hdg 270

Location; KUOX
Day. 25 / Time. 22.55 Zulu
* Altimeter: 30.14
* Temperature: 08° c. 46.4°f.
* Wind from: 000° Speed 00 kn.
Dewpoint: -00° c.
Visibility: 10 Statute Miles.
Clouds: Clear (automated report).

KUOX 252255Z AUTO 00000KT 10SM CLR 08/M00 A3014 RMK AO2


Wind - Calm.

 
 
jpsmedia worldairports.se 2020   terms of use